sensor_id;sensor_type;location;lat;lon;timestamp;P1;durP1;ratioP1;P2;durP2;ratioP2
5543;SDS011;2795;47.652;13.128;2022-07-18T00:02:00;7.87;;;5.50;;
5543;SDS011;2795;47.652;13.128;2022-07-18T00:04:29;14.20;;;6.13;;
5543;SDS011;2795;47.652;13.128;2022-07-18T00:06:56;13.50;;;5.97;;
5543;SDS011;2795;47.652;13.128;2022-07-18T00:09:23;12.67;;;5.90;;
5543;SDS011;2795;47.652;13.128;2022-07-18T00:11:50;10.03;;;5.60;;
5543;SDS011;2795;47.652;13.128;2022-07-18T00:14:18;14.27;;;6.30;;
5543;SDS011;2795;47.652;13.128;2022-07-18T00:16:46;10.73;;;5.50;;
5543;SDS011;2795;47.652;13.128;2022-07-18T00:19:13;9.03;;;6.17;;
5543;SDS011;2795;47.652;13.128;2022-07-18T00:21:39;8.07;;;5.60;;
5543;SDS011;2795;47.652;13.128;2022-07-18T00:24:06;11.07;;;6.50;;
5543;SDS011;2795;47.652;13.128;2022-07-18T00:26:33;12.50;;;6.20;;
5543;SDS011;2795;47.652;13.128;2022-07-18T00:28:59;11.90;;;5.80;;
5543;SDS011;2795;47.652;13.128;2022-07-18T00:31:27;13.57;;;5.87;;
5543;SDS011;2795;47.652;13.128;2022-07-18T00:33:54;10.17;;;5.90;;
5543;SDS011;2795;47.652;13.128;2022-07-18T00:36:20;10.07;;;5.70;;
5543;SDS011;2795;47.652;13.128;2022-07-18T00:38:47;12.83;;;5.80;;
5543;SDS011;2795;47.652;13.128;2022-07-18T00:41:14;12.87;;;6.23;;
5543;SDS011;2795;47.652;13.128;2022-07-18T00:43:41;8.33;;;5.73;;
5543;SDS011;2795;47.652;13.128;2022-07-18T00:46:08;11.63;;;6.00;;
5543;SDS011;2795;47.652;13.128;2022-07-18T00:48:41;12.53;;;6.83;;
5543;SDS011;2795;47.652;13.128;2022-07-18T00:51:08;13.83;;;6.70;;
5543;SDS011;2795;47.652;13.128;2022-07-18T00:53:35;18.43;;;7.13;;
5543;SDS011;2795;47.652;13.128;2022-07-18T00:56:02;12.00;;;6.63;;
5543;SDS011;2795;47.652;13.128;2022-07-18T00:58:29;14.33;;;6.67;;
5543;SDS011;2795;47.652;13.128;2022-07-18T01:00:56;15.70;;;7.17;;
5543;SDS011;2795;47.652;13.128;2022-07-18T01:03:42;9.60;;;6.37;;
5543;SDS011;2795;47.652;13.128;2022-07-18T01:06:08;12.80;;;7.00;;
5543;SDS011;2795;47.652;13.128;2022-07-18T01:08:35;12.00;;;6.07;;
5543;SDS011;2795;47.652;13.128;2022-07-18T01:11:04;10.17;;;6.00;;
5543;SDS011;2795;47.652;13.128;2022-07-18T01:13:31;11.97;;;6.37;;
5543;SDS011;2795;47.652;13.128;2022-07-18T01:15:58;15.03;;;6.70;;
5543;SDS011;2795;47.652;13.128;2022-07-18T01:18:25;16.67;;;8.13;;
5543;SDS011;2795;47.652;13.128;2022-07-18T01:20:51;11.70;;;7.20;;
5543;SDS011;2795;47.652;13.128;2022-07-18T01:23:18;11.10;;;7.13;;
5543;SDS011;2795;47.652;13.128;2022-07-18T01:25:44;18.30;;;7.30;;
5543;SDS011;2795;47.652;13.128;2022-07-18T01:28:11;13.93;;;7.60;;
5543;SDS011;2795;47.652;13.128;2022-07-18T01:30:38;11.90;;;6.67;;
5543;SDS011;2795;47.652;13.128;2022-07-18T01:33:04;10.93;;;6.30;;
5543;SDS011;2795;47.652;13.128;2022-07-18T01:35:31;15.83;;;7.20;;
5543;SDS011;2795;47.652;13.128;2022-07-18T01:37:58;18.27;;;7.60;;
5543;SDS011;2795;47.652;13.128;2022-07-18T01:40:27;13.63;;;7.50;;
5543;SDS011;2795;47.652;13.128;2022-07-18T01:42:53;12.20;;;7.67;;
5543;SDS011;2795;47.652;13.128;2022-07-18T01:45:20;13.83;;;7.83;;
5543;SDS011;2795;47.652;13.128;2022-07-18T01:47:47;15.87;;;6.90;;
5543;SDS011;2795;47.652;13.128;2022-07-18T01:50:13;16.33;;;7.30;;
5543;SDS011;2795;47.652;13.128;2022-07-18T01:52:40;11.40;;;7.17;;
5543;SDS011;2795;47.652;13.128;2022-07-18T01:55:08;11.93;;;6.93;;
5543;SDS011;2795;47.652;13.128;2022-07-18T01:57:36;14.00;;;6.90;;
5543;SDS011;2795;47.652;13.128;2022-07-18T02:00:05;15.43;;;6.63;;
5543;SDS011;2795;47.652;13.128;2022-07-18T02:02:33;10.90;;;5.90;;
5543;SDS011;2795;47.652;13.128;2022-07-18T02:05:00;22.17;;;7.73;;
5543;SDS011;2795;47.652;13.128;2022-07-18T02:07:27;13.57;;;6.67;;
5543;SDS011;2795;47.652;13.128;2022-07-18T02:09:55;15.70;;;7.60;;
5543;SDS011;2795;47.652;13.128;2022-07-18T02:12:22;31.20;;;9.40;;
5543;SDS011;2795;47.652;13.128;2022-07-18T02:14:49;18.13;;;7.00;;
5543;SDS011;2795;47.652;13.128;2022-07-18T02:17:16;12.30;;;6.60;;
5543;SDS011;2795;47.652;13.128;2022-07-18T02:19:43;12.10;;;6.23;;
5543;SDS011;2795;47.652;13.128;2022-07-18T02:22:10;9.83;;;5.93;;
5543;SDS011;2795;47.652;13.128;2022-07-18T02:24:37;14.37;;;7.50;;
5543;SDS011;2795;47.652;13.128;2022-07-18T02:27:04;12.83;;;6.40;;
5543;SDS011;2795;47.652;13.128;2022-07-18T02:29:30;21.47;;;8.30;;
5543;SDS011;2795;47.652;13.128;2022-07-18T02:31:57;15.90;;;7.50;;
5543;SDS011;2795;47.652;13.128;2022-07-18T02:34:23;13.73;;;6.47;;
5543;SDS011;2795;47.652;13.128;2022-07-18T02:36:50;14.73;;;7.30;;
5543;SDS011;2795;47.652;13.128;2022-07-18T02:39:17;15.20;;;6.53;;
5543;SDS011;2795;47.652;13.128;2022-07-18T02:41:45;11.87;;;6.50;;
5543;SDS011;2795;47.652;13.128;2022-07-18T02:44:12;12.07;;;7.70;;
5543;SDS011;2795;47.652;13.128;2022-07-18T02:46:39;9.67;;;6.93;;
5543;SDS011;2795;47.652;13.128;2022-07-18T02:49:06;14.20;;;7.03;;
5543;SDS011;2795;47.652;13.128;2022-07-18T02:51:33;13.13;;;6.97;;
5543;SDS011;2795;47.652;13.128;2022-07-18T02:54:00;11.73;;;6.97;;
5543;SDS011;2795;47.652;13.128;2022-07-18T02:56:26;13.43;;;6.17;;
5543;SDS011;2795;47.652;13.128;2022-07-18T02:58:53;9.33;;;6.33;;
5543;SDS011;2795;47.652;13.128;2022-07-18T03:01:20;21.43;;;7.60;;
5543;SDS011;2795;47.652;13.128;2022-07-18T03:03:47;15.47;;;6.90;;
5543;SDS011;2795;47.652;13.128;2022-07-18T03:06:13;11.90;;;6.70;;
5543;SDS011;2795;47.652;13.128;2022-07-18T03:08:40;11.03;;;6.80;;
5543;SDS011;2795;47.652;13.128;2022-07-18T03:11:06;13.40;;;7.20;;
5543;SDS011;2795;47.652;13.128;2022-07-18T03:13:33;15.80;;;6.57;;
5543;SDS011;2795;47.652;13.128;2022-07-18T03:16:00;14.43;;;7.90;;
5543;SDS011;2795;47.652;13.128;2022-07-18T03:18:26;12.57;;;7.73;;
5543;SDS011;2795;47.652;13.128;2022-07-18T03:20:53;13.30;;;6.40;;
5543;SDS011;2795;47.652;13.128;2022-07-18T03:23:20;11.90;;;6.87;;
5543;SDS011;2795;47.652;13.128;2022-07-18T03:25:47;14.17;;;7.50;;
5543;SDS011;2795;47.652;13.128;2022-07-18T03:28:13;10.80;;;6.63;;
5543;SDS011;2795;47.652;13.128;2022-07-18T03:30:40;13.47;;;6.87;;
5543;SDS011;2795;47.652;13.128;2022-07-18T03:33:07;11.93;;;6.57;;
5543;SDS011;2795;47.652;13.128;2022-07-18T03:35:33;13.50;;;6.73;;
5543;SDS011;2795;47.652;13.128;2022-07-18T03:38:00;10.77;;;6.13;;
5543;SDS011;2795;47.652;13.128;2022-07-18T03:40:27;13.53;;;7.40;;
5543;SDS011;2795;47.652;13.128;2022-07-18T03:42:53;21.23;;;7.87;;
5543;SDS011;2795;47.652;13.128;2022-07-18T03:45:20;12.87;;;6.63;;
5543;SDS011;2795;47.652;13.128;2022-07-18T03:47:47;10.33;;;6.13;;
5543;SDS011;2795;47.652;13.128;2022-07-18T03:50:13;14.53;;;7.43;;
5543;SDS011;2795;47.652;13.128;2022-07-18T03:52:40;16.43;;;6.47;;
5543;SDS011;2795;47.652;13.128;2022-07-18T03:55:07;10.17;;;6.20;;
5543;SDS011;2795;47.652;13.128;2022-07-18T03:57:34;11.40;;;6.83;;
5543;SDS011;2795;47.652;13.128;2022-07-18T04:00:00;22.27;;;7.97;;
5543;SDS011;2795;47.652;13.128;2022-07-18T04:02:27;18.30;;;7.47;;
5543;SDS011;2795;47.652;13.128;2022-07-18T04:04:53;18.83;;;7.83;;
5543;SDS011;2795;47.652;13.128;2022-07-18T04:07:20;14.00;;;6.60;;
5543;SDS011;2795;47.652;13.128;2022-07-18T04:09:46;12.50;;;6.27;;
5543;SDS011;2795;47.652;13.128;2022-07-18T04:12:13;19.90;;;6.97;;
5543;SDS011;2795;47.652;13.128;2022-07-18T04:14:40;12.50;;;6.63;;
5543;SDS011;2795;47.652;13.128;2022-07-18T04:17:06;15.13;;;6.23;;
5543;SDS011;2795;47.652;13.128;2022-07-18T04:19:33;12.83;;;6.40;;
5543;SDS011;2795;47.652;13.128;2022-07-18T04:22:00;14.53;;;5.97;;
5543;SDS011;2795;47.652;13.128;2022-07-18T04:24:27;10.03;;;6.27;;
5543;SDS011;2795;47.652;13.128;2022-07-18T04:26:53;10.87;;;6.30;;
5543;SDS011;2795;47.652;13.128;2022-07-18T04:29:20;15.47;;;7.03;;
5543;SDS011;2795;47.652;13.128;2022-07-18T04:31:47;15.70;;;7.83;;
5543;SDS011;2795;47.652;13.128;2022-07-18T04:34:13;14.70;;;8.13;;
5543;SDS011;2795;47.652;13.128;2022-07-18T04:36:40;13.30;;;7.53;;
5543;SDS011;2795;47.652;13.128;2022-07-18T04:39:07;13.27;;;6.70;;
5543;SDS011;2795;47.652;13.128;2022-07-18T04:41:34;14.00;;;7.83;;
5543;SDS011;2795;47.652;13.128;2022-07-18T04:44:01;23.13;;;8.53;;
5543;SDS011;2795;47.652;13.128;2022-07-18T04:46:28;10.20;;;6.30;;
5543;SDS011;2795;47.652;13.128;2022-07-18T04:48:55;13.13;;;6.93;;
5543;SDS011;2795;47.652;13.128;2022-07-18T04:51:22;20.37;;;7.30;;
5543;SDS011;2795;47.652;13.128;2022-07-18T04:53:48;11.23;;;6.40;;
5543;SDS011;2795;47.652;13.128;2022-07-18T04:56:15;10.13;;;6.17;;
5543;SDS011;2795;47.652;13.128;2022-07-18T04:58:42;14.87;;;7.20;;
5543;SDS011;2795;47.652;13.128;2022-07-18T05:01:08;14.57;;;6.93;;
5543;SDS011;2795;47.652;13.128;2022-07-18T05:03:35;11.77;;;6.07;;
5543;SDS011;2795;47.652;13.128;2022-07-18T05:06:01;16.17;;;8.10;;
5543;SDS011;2795;47.652;13.128;2022-07-18T05:08:28;19.40;;;8.20;;
5543;SDS011;2795;47.652;13.128;2022-07-18T05:10:54;13.57;;;7.00;;
5543;SDS011;2795;47.652;13.128;2022-07-18T05:13:21;12.77;;;7.40;;
5543;SDS011;2795;47.652;13.128;2022-07-18T05:15:48;12.93;;;7.63;;
5543;SDS011;2795;47.652;13.128;2022-07-18T05:18:15;13.27;;;8.00;;
5543;SDS011;2795;47.652;13.128;2022-07-18T05:20:41;15.37;;;7.53;;
5543;SDS011;2795;47.652;13.128;2022-07-18T05:23:09;12.33;;;7.10;;
5543;SDS011;2795;47.652;13.128;2022-07-18T05:25:36;14.60;;;7.20;;
5543;SDS011;2795;47.652;13.128;2022-07-18T05:28:03;22.20;;;7.90;;
5543;SDS011;2795;47.652;13.128;2022-07-18T05:30:29;19.80;;;7.63;;
5543;SDS011;2795;47.652;13.128;2022-07-18T05:32:56;14.10;;;7.27;;
5543;SDS011;2795;47.652;13.128;2022-07-18T05:35:22;16.93;;;7.60;;
5543;SDS011;2795;47.652;13.128;2022-07-18T05:37:49;19.90;;;7.00;;
5543;SDS011;2795;47.652;13.128;2022-07-18T05:40:16;13.73;;;6.97;;
5543;SDS011;2795;47.652;13.128;2022-07-18T05:42:42;10.30;;;6.40;;
5543;SDS011;2795;47.652;13.128;2022-07-18T05:45:19;12.27;;;6.97;;
5543;SDS011;2795;47.652;13.128;2022-07-18T05:47:46;10.83;;;6.77;;
5543;SDS011;2795;47.652;13.128;2022-07-18T05:50:13;10.77;;;7.07;;
5543;SDS011;2795;47.652;13.128;2022-07-18T05:52:40;11.13;;;6.77;;
5543;SDS011;2795;47.652;13.128;2022-07-18T05:55:06;16.30;;;7.47;;
5543;SDS011;2795;47.652;13.128;2022-07-18T05:57:34;16.90;;;7.97;;
5543;SDS011;2795;47.652;13.128;2022-07-18T06:00:05;16.63;;;7.70;;
5543;SDS011;2795;47.652;13.128;2022-07-18T06:02:33;15.27;;;7.80;;
5543;SDS011;2795;47.652;13.128;2022-07-18T06:05:00;16.30;;;7.63;;
5543;SDS011;2795;47.652;13.128;2022-07-18T06:07:46;20.63;;;7.37;;
5543;SDS011;2795;47.652;13.128;2022-07-18T06:10:13;16.17;;;7.40;;
5543;SDS011;2795;47.652;13.128;2022-07-18T06:12:40;15.53;;;7.60;;
5543;SDS011;2795;47.652;13.128;2022-07-18T06:15:07;15.63;;;6.90;;
5543;SDS011;2795;47.652;13.128;2022-07-18T06:17:34;14.07;;;6.57;;
5543;SDS011;2795;47.652;13.128;2022-07-18T06:20:00;19.53;;;8.27;;
5543;SDS011;2795;47.652;13.128;2022-07-18T06:22:27;15.67;;;8.00;;
5543;SDS011;2795;47.652;13.128;2022-07-18T06:24:53;15.70;;;7.57;;
5543;SDS011;2795;47.652;13.128;2022-07-18T06:27:20;14.67;;;7.40;;
5543;SDS011;2795;47.652;13.128;2022-07-18T06:29:47;14.20;;;7.30;;
5543;SDS011;2795;47.652;13.128;2022-07-18T06:32:13;16.97;;;8.10;;
5543;SDS011;2795;47.652;13.128;2022-07-18T06:34:40;13.80;;;6.93;;
5543;SDS011;2795;47.652;13.128;2022-07-18T06:37:06;14.23;;;7.13;;
5543;SDS011;2795;47.652;13.128;2022-07-18T06:39:33;16.30;;;7.50;;
5543;SDS011;2795;47.652;13.128;2022-07-18T06:42:00;18.10;;;7.40;;
5543;SDS011;2795;47.652;13.128;2022-07-18T06:44:26;18.73;;;7.90;;
5543;SDS011;2795;47.652;13.128;2022-07-18T06:46:53;17.00;;;6.17;;
5543;SDS011;2795;47.652;13.128;2022-07-18T06:49:20;15.00;;;7.03;;
5543;SDS011;2795;47.652;13.128;2022-07-18T06:51:46;15.33;;;8.13;;
5543;SDS011;2795;47.652;13.128;2022-07-18T06:54:13;16.10;;;7.37;;
5543;SDS011;2795;47.652;13.128;2022-07-18T06:56:40;15.83;;;7.10;;
5543;SDS011;2795;47.652;13.128;2022-07-18T06:59:06;20.00;;;8.00;;
5543;SDS011;2795;47.652;13.128;2022-07-18T07:01:33;22.03;;;8.23;;
5543;SDS011;2795;47.652;13.128;2022-07-18T07:04:01;21.53;;;8.73;;
5543;SDS011;2795;47.652;13.128;2022-07-18T07:06:27;19.03;;;7.87;;
5543;SDS011;2795;47.652;13.128;2022-07-18T07:08:54;13.63;;;6.97;;
5543;SDS011;2795;47.652;13.128;2022-07-18T07:11:20;15.23;;;6.80;;
5543;SDS011;2795;47.652;13.128;2022-07-18T07:13:48;15.43;;;7.50;;
5543;SDS011;2795;47.652;13.128;2022-07-18T07:16:15;10.47;;;6.43;;
5543;SDS011;2795;47.652;13.128;2022-07-18T07:18:42;14.43;;;7.63;;
5543;SDS011;2795;47.652;13.128;2022-07-18T07:21:09;26.10;;;9.20;;
5543;SDS011;2795;47.652;13.128;2022-07-18T07:23:35;20.63;;;8.77;;
5543;SDS011;2795;47.652;13.128;2022-07-18T07:26:02;18.93;;;7.97;;
5543;SDS011;2795;47.652;13.128;2022-07-18T07:28:29;13.67;;;7.83;;
5543;SDS011;2795;47.652;13.128;2022-07-18T07:30:55;17.33;;;7.40;;
5543;SDS011;2795;47.652;13.128;2022-07-18T07:33:22;17.13;;;7.33;;
5543;SDS011;2795;47.652;13.128;2022-07-18T07:35:48;13.90;;;7.23;;
5543;SDS011;2795;47.652;13.128;2022-07-18T07:38:15;10.87;;;7.27;;
5543;SDS011;2795;47.652;13.128;2022-07-18T07:40:46;12.30;;;6.90;;
5543;SDS011;2795;47.652;13.128;2022-07-18T07:43:14;12.63;;;7.10;;
5543;SDS011;2795;47.652;13.128;2022-07-18T07:45:43;9.30;;;6.80;;
5543;SDS011;2795;47.652;13.128;2022-07-18T07:48:12;12.67;;;7.20;;
5543;SDS011;2795;47.652;13.128;2022-07-18T07:50:39;9.73;;;6.83;;
5543;SDS011;2795;47.652;13.128;2022-07-18T07:53:06;16.00;;;7.60;;
5543;SDS011;2795;47.652;13.128;2022-07-18T07:55:33;12.60;;;6.97;;
5543;SDS011;2795;47.652;13.128;2022-07-18T07:57:59;10.57;;;6.93;;
5543;SDS011;2795;47.652;13.128;2022-07-18T08:00:26;11.07;;;6.30;;
5543;SDS011;2795;47.652;13.128;2022-07-18T08:02:58;10.10;;;6.67;;
5543;SDS011;2795;47.652;13.128;2022-07-18T08:05:28;12.63;;;7.33;;
5543;SDS011;2795;47.652;13.128;2022-07-18T08:07:56;11.43;;;6.90;;
5543;SDS011;2795;47.652;13.128;2022-07-18T08:10:23;11.37;;;6.50;;
5543;SDS011;2795;47.652;13.128;2022-07-18T08:12:51;11.50;;;6.80;;
5543;SDS011;2795;47.652;13.128;2022-07-18T08:15:18;15.93;;;7.70;;
5543;SDS011;2795;47.652;13.128;2022-07-18T08:17:45;12.07;;;7.23;;
5543;SDS011;2795;47.652;13.128;2022-07-18T08:20:13;12.53;;;6.87;;
5543;SDS011;2795;47.652;13.128;2022-07-18T08:23:02;9.00;;;6.33;;
5543;SDS011;2795;47.652;13.128;2022-07-18T08:25:31;15.33;;;7.50;;
5543;SDS011;2795;47.652;13.128;2022-07-18T08:28:00;20.93;;;8.23;;
5543;SDS011;2795;47.652;13.128;2022-07-18T08:30:28;12.03;;;6.63;;
5543;SDS011;2795;47.652;13.128;2022-07-18T08:32:55;9.50;;;6.20;;
5543;SDS011;2795;47.652;13.128;2022-07-18T08:35:22;13.40;;;6.23;;
5543;SDS011;2795;47.652;13.128;2022-07-18T08:37:49;22.40;;;8.27;;
5543;SDS011;2795;47.652;13.128;2022-07-18T08:40:15;13.37;;;7.67;;
5543;SDS011;2795;47.652;13.128;2022-07-18T08:42:42;9.77;;;5.77;;
5543;SDS011;2795;47.652;13.128;2022-07-18T08:45:29;11.97;;;6.00;;
5543;SDS011;2795;47.652;13.128;2022-07-18T08:47:56;9.13;;;6.63;;
5543;SDS011;2795;47.652;13.128;2022-07-18T08:50:22;13.30;;;6.20;;
5543;SDS011;2795;47.652;13.128;2022-07-18T08:52:49;10.07;;;5.80;;
5543;SDS011;2795;47.652;13.128;2022-07-18T08:55:20;13.00;;;7.00;;
5543;SDS011;2795;47.652;13.128;2022-07-18T08:57:53;7.50;;;5.23;;
5543;SDS011;2795;47.652;13.128;2022-07-18T09:00:20;8.40;;;5.50;;
5543;SDS011;2795;47.652;13.128;2022-07-18T09:02:55;13.13;;;5.93;;
5543;SDS011;2795;47.652;13.128;2022-07-18T09:05:26;7.90;;;5.83;;
5543;SDS011;2795;47.652;13.128;2022-07-18T09:10:51;10.93;;;6.33;;
5543;SDS011;2795;47.652;13.128;2022-07-18T09:13:21;10.90;;;6.47;;
5543;SDS011;2795;47.652;13.128;2022-07-18T09:15:57;10.40;;;6.50;;
5543;SDS011;2795;47.652;13.128;2022-07-18T09:18:27;8.60;;;5.77;;
5543;SDS011;2795;47.652;13.128;2022-07-18T09:21:07;12.90;;;6.27;;
5543;SDS011;2795;47.652;13.128;2022-07-18T09:23:36;10.63;;;5.93;;
5543;SDS011;2795;47.652;13.128;2022-07-18T09:26:06;10.20;;;5.47;;
5543;SDS011;2795;47.652;13.128;2022-07-18T09:28:49;10.33;;;5.70;;
5543;SDS011;2795;47.652;13.128;2022-07-18T09:31:37;9.20;;;5.90;;
5543;SDS011;2795;47.652;13.128;2022-07-18T09:34:04;20.63;;;6.87;;
5543;SDS011;2795;47.652;13.128;2022-07-18T09:36:32;12.03;;;5.97;;
5543;SDS011;2795;47.652;13.128;2022-07-18T09:39:16;8.53;;;5.33;;
5543;SDS011;2795;47.652;13.128;2022-07-18T09:41:48;9.00;;;6.07;;
5543;SDS011;2795;47.652;13.128;2022-07-18T09:44:18;12.50;;;5.93;;
5543;SDS011;2795;47.652;13.128;2022-07-18T09:46:59;11.03;;;5.60;;
5543;SDS011;2795;47.652;13.128;2022-07-18T09:49:30;9.07;;;5.67;;
5543;SDS011;2795;47.652;13.128;2022-07-18T09:52:02;16.60;;;6.97;;
5543;SDS011;2795;47.652;13.128;2022-07-18T09:54:43;12.73;;;5.83;;
5543;SDS011;2795;47.652;13.128;2022-07-18T09:57:10;10.73;;;6.10;;
5543;SDS011;2795;47.652;13.128;2022-07-18T09:59:49;7.23;;;5.50;;
5543;SDS011;2795;47.652;13.128;2022-07-18T10:02:16;10.03;;;5.47;;
5543;SDS011;2795;47.652;13.128;2022-07-18T10:04:43;10.13;;;6.03;;
5543;SDS011;2795;47.652;13.128;2022-07-18T10:07:10;10.27;;;6.37;;
5543;SDS011;2795;47.652;13.128;2022-07-18T10:09:38;10.73;;;5.60;;
5543;SDS011;2795;47.652;13.128;2022-07-18T10:12:05;11.60;;;5.23;;
5543;SDS011;2795;47.652;13.128;2022-07-18T10:14:32;13.83;;;6.13;;
5543;SDS011;2795;47.652;13.128;2022-07-18T10:16:59;10.87;;;5.80;;
5543;SDS011;2795;47.652;13.128;2022-07-18T10:19:26;16.13;;;5.13;;
5543;SDS011;2795;47.652;13.128;2022-07-18T10:21:54;11.23;;;5.77;;
5543;SDS011;2795;47.652;13.128;2022-07-18T10:24:23;8.93;;;5.77;;
5543;SDS011;2795;47.652;13.128;2022-07-18T10:29:41;9.53;;;5.70;;
5543;SDS011;2795;47.652;13.128;2022-07-18T10:32:38;10.40;;;5.43;;
5543;SDS011;2795;47.652;13.128;2022-07-18T10:35:06;12.80;;;5.93;;
5543;SDS011;2795;47.652;13.128;2022-07-18T10:37:34;9.37;;;5.50;;
5543;SDS011;2795;47.652;13.128;2022-07-18T10:46:00;11.87;;;5.57;;
5543;SDS011;2795;47.652;13.128;2022-07-18T10:51:07;11.03;;;5.40;;
5543;SDS011;2795;47.652;13.128;2022-07-18T10:56:20;6.50;;;4.60;;
5543;SDS011;2795;47.652;13.128;2022-07-18T10:58:47;7.27;;;4.73;;
5543;SDS011;2795;47.652;13.128;2022-07-18T11:01:16;8.20;;;5.10;;
5543;SDS011;2795;47.652;13.128;2022-07-18T11:03:43;12.17;;;5.70;;
5543;SDS011;2795;47.652;13.128;2022-07-18T11:06:10;9.27;;;5.30;;
5543;SDS011;2795;47.652;13.128;2022-07-18T11:08:37;12.10;;;5.27;;
5543;SDS011;2795;47.652;13.128;2022-07-18T11:11:07;12.80;;;5.93;;
5543;SDS011;2795;47.652;13.128;2022-07-18T11:21:18;8.27;;;4.77;;
5543;SDS011;2795;47.652;13.128;2022-07-18T11:23:47;17.53;;;6.40;;
5543;SDS011;2795;47.652;13.128;2022-07-18T11:26:16;13.67;;;5.40;;
5543;SDS011;2795;47.652;13.128;2022-07-18T11:28:49;14.73;;;4.97;;
5543;SDS011;2795;47.652;13.128;2022-07-18T11:31:26;8.93;;;5.27;;
5543;SDS011;2795;47.652;13.128;2022-07-18T11:33:54;7.80;;;4.30;;
5543;SDS011;2795;47.652;13.128;2022-07-18T11:36:22;8.53;;;4.27;;
5543;SDS011;2795;47.652;13.128;2022-07-18T11:38:53;14.23;;;5.27;;
5543;SDS011;2795;47.652;13.128;2022-07-18T11:41:21;6.33;;;4.10;;
5543;SDS011;2795;47.652;13.128;2022-07-18T11:43:49;6.40;;;4.17;;
5543;SDS011;2795;47.652;13.128;2022-07-18T11:46:18;10.00;;;4.40;;
5543;SDS011;2795;47.652;13.128;2022-07-18T11:48:47;8.60;;;4.40;;
5543;SDS011;2795;47.652;13.128;2022-07-18T11:51:17;9.60;;;4.20;;
5543;SDS011;2795;47.652;13.128;2022-07-18T11:53:48;11.43;;;4.23;;
5543;SDS011;2795;47.652;13.128;2022-07-18T11:56:17;7.20;;;4.27;;
5543;SDS011;2795;47.652;13.128;2022-07-18T11:58:45;7.23;;;3.80;;
5543;SDS011;2795;47.652;13.128;2022-07-18T12:01:12;8.43;;;4.13;;
5543;SDS011;2795;47.652;13.128;2022-07-18T12:03:40;8.73;;;4.10;;
5543;SDS011;2795;47.652;13.128;2022-07-18T12:06:18;10.93;;;4.17;;
5543;SDS011;2795;47.652;13.128;2022-07-18T12:08:47;8.50;;;4.37;;
5543;SDS011;2795;47.652;13.128;2022-07-18T12:11:26;6.90;;;3.70;;
5543;SDS011;2795;47.652;13.128;2022-07-18T12:14:02;9.93;;;4.10;;
5543;SDS011;2795;47.652;13.128;2022-07-18T12:16:39;11.27;;;4.17;;
5543;SDS011;2795;47.652;13.128;2022-07-18T12:19:11;4.80;;;3.17;;
5543;SDS011;2795;47.652;13.128;2022-07-18T12:22:11;24.00;;;3.80;;
5543;SDS011;2795;47.652;13.128;2022-07-18T12:24:51;7.63;;;3.90;;
5543;SDS011;2795;47.652;13.128;2022-07-18T12:27:22;10.80;;;3.47;;
5543;SDS011;2795;47.652;13.128;2022-07-18T12:32:25;7.47;;;4.27;;
5543;SDS011;2795;47.652;13.128;2022-07-18T12:34:53;7.77;;;3.90;;
5543;SDS011;2795;47.652;13.128;2022-07-18T12:37:24;7.13;;;4.00;;
5543;SDS011;2795;47.652;13.128;2022-07-18T12:40:10;8.50;;;3.40;;
5543;SDS011;2795;47.652;13.128;2022-07-18T12:43:02;7.27;;;4.13;;
5543;SDS011;2795;47.652;13.128;2022-07-18T12:45:39;21.13;;;5.33;;
5543;SDS011;2795;47.652;13.128;2022-07-18T12:48:07;8.43;;;4.03;;
5543;SDS011;2795;47.652;13.128;2022-07-18T12:50:35;8.40;;;4.10;;
5543;SDS011;2795;47.652;13.128;2022-07-18T12:53:03;9.47;;;4.20;;
5543;SDS011;2795;47.652;13.128;2022-07-18T12:55:30;12.00;;;4.17;;
5543;SDS011;2795;47.652;13.128;2022-07-18T12:57:58;9.27;;;4.03;;
5543;SDS011;2795;47.652;13.128;2022-07-18T13:00:27;6.00;;;3.53;;
5543;SDS011;2795;47.652;13.128;2022-07-18T13:02:56;3.90;;;3.40;;
5543;SDS011;2795;47.652;13.128;2022-07-18T13:05:25;7.80;;;4.00;;
5543;SDS011;2795;47.652;13.128;2022-07-18T13:07:52;8.33;;;4.00;;
5543;SDS011;2795;47.652;13.128;2022-07-18T13:10:19;10.17;;;4.60;;
5543;SDS011;2795;47.652;13.128;2022-07-18T13:12:46;6.20;;;3.60;;
5543;SDS011;2795;47.652;13.128;2022-07-18T13:15:12;6.83;;;3.93;;
5543;SDS011;2795;47.652;13.128;2022-07-18T13:17:39;11.60;;;4.70;;
5543;SDS011;2795;47.652;13.128;2022-07-18T13:20:06;11.57;;;4.30;;
5543;SDS011;2795;47.652;13.128;2022-07-18T13:22:32;7.20;;;3.93;;
5543;SDS011;2795;47.652;13.128;2022-07-18T13:25:07;7.87;;;4.07;;
5543;SDS011;2795;47.652;13.128;2022-07-18T13:27:35;5.33;;;4.00;;
5543;SDS011;2795;47.652;13.128;2022-07-18T13:30:06;5.60;;;3.87;;
5543;SDS011;2795;47.652;13.128;2022-07-18T13:32:33;9.03;;;3.80;;
5543;SDS011;2795;47.652;13.128;2022-07-18T13:35:00;5.63;;;4.00;;
5543;SDS011;2795;47.652;13.128;2022-07-18T13:37:26;5.27;;;3.60;;
5543;SDS011;2795;47.652;13.128;2022-07-18T13:39:53;9.03;;;3.50;;
5543;SDS011;2795;47.652;13.128;2022-07-18T13:42:20;6.20;;;4.13;;
5543;SDS011;2795;47.652;13.128;2022-07-18T13:44:46;9.83;;;4.20;;
5543;SDS011;2795;47.652;13.128;2022-07-18T13:47:13;6.60;;;3.70;;
5543;SDS011;2795;47.652;13.128;2022-07-18T13:49:40;5.70;;;3.93;;
5543;SDS011;2795;47.652;13.128;2022-07-18T13:52:07;12.37;;;4.77;;
5543;SDS011;2795;47.652;13.128;2022-07-18T13:54:36;8.43;;;4.07;;
5543;SDS011;2795;47.652;13.128;2022-07-18T13:57:02;5.33;;;3.70;;
5543;SDS011;2795;47.652;13.128;2022-07-18T13:59:30;5.50;;;3.70;;
5543;SDS011;2795;47.652;13.128;2022-07-18T14:01:56;5.50;;;3.70;;
5543;SDS011;2795;47.652;13.128;2022-07-18T14:04:23;8.27;;;4.13;;
5543;SDS011;2795;47.652;13.128;2022-07-18T14:06:50;6.77;;;4.30;;
5543;SDS011;2795;47.652;13.128;2022-07-18T14:09:17;6.47;;;4.10;;
5543;SDS011;2795;47.652;13.128;2022-07-18T14:11:44;9.03;;;4.00;;
5543;SDS011;2795;47.652;13.128;2022-07-18T14:14:10;11.20;;;4.10;;
5543;SDS011;2795;47.652;13.128;2022-07-18T14:16:37;10.27;;;3.80;;
5543;SDS011;2795;47.652;13.128;2022-07-18T14:19:04;8.30;;;3.53;;
5543;SDS011;2795;47.652;13.128;2022-07-18T14:21:31;5.70;;;3.40;;
5543;SDS011;2795;47.652;13.128;2022-07-18T14:23:59;3.73;;;3.27;;
5543;SDS011;2795;47.652;13.128;2022-07-18T14:26:25;4.27;;;3.10;;
5543;SDS011;2795;47.652;13.128;2022-07-18T14:28:52;3.30;;;3.10;;
5543;SDS011;2795;47.652;13.128;2022-07-18T14:31:19;3.83;;;3.33;;
5543;SDS011;2795;47.652;13.128;2022-07-18T14:33:46;6.03;;;3.30;;
5543;SDS011;2795;47.652;13.128;2022-07-18T14:36:14;7.67;;;3.80;;
5543;SDS011;2795;47.652;13.128;2022-07-18T14:38:40;6.90;;;3.27;;
5543;SDS011;2795;47.652;13.128;2022-07-18T14:41:08;7.60;;;4.00;;
5543;SDS011;2795;47.652;13.128;2022-07-18T14:43:35;5.80;;;3.60;;
5543;SDS011;2795;47.652;13.128;2022-07-18T14:46:01;6.40;;;3.13;;
5543;SDS011;2795;47.652;13.128;2022-07-18T14:48:30;5.00;;;3.03;;
5543;SDS011;2795;47.652;13.128;2022-07-18T14:50:56;3.17;;;2.70;;
5543;SDS011;2795;47.652;13.128;2022-07-18T14:53:23;4.67;;;3.27;;
5543;SDS011;2795;47.652;13.128;2022-07-18T14:55:50;10.20;;;3.90;;
5543;SDS011;2795;47.652;13.128;2022-07-18T14:58:17;5.50;;;3.40;;
5543;SDS011;2795;47.652;13.128;2022-07-18T15:00:45;4.97;;;3.10;;
5543;SDS011;2795;47.652;13.128;2022-07-18T15:03:11;8.63;;;4.10;;
5543;SDS011;2795;47.652;13.128;2022-07-18T15:05:58;6.37;;;3.70;;
5543;SDS011;2795;47.652;13.128;2022-07-18T15:08:24;3.60;;;2.90;;
5543;SDS011;2795;47.652;13.128;2022-07-18T15:10:51;7.20;;;3.63;;
5543;SDS011;2795;47.652;13.128;2022-07-18T15:13:17;5.90;;;3.10;;
5543;SDS011;2795;47.652;13.128;2022-07-18T15:15:44;7.90;;;2.87;;
5543;SDS011;2795;47.652;13.128;2022-07-18T15:18:14;5.10;;;3.33;;
5543;SDS011;2795;47.652;13.128;2022-07-18T15:20:40;6.47;;;3.27;;
5543;SDS011;2795;47.652;13.128;2022-07-18T15:23:10;6.70;;;3.03;;
5543;SDS011;2795;47.652;13.128;2022-07-18T15:25:37;4.77;;;2.93;;
5543;SDS011;2795;47.652;13.128;2022-07-18T15:28:04;3.33;;;3.00;;